sensor_id;sensor_type;location;lat;lon;timestamp;pressure;altitude;pressure_sealevel;temperature;humidity
20624;BME280;10471;42.736;23.346;2023-04-04T00:01:59;94126.78;;;9.27;100.00
20624;BME280;10471;42.736;23.346;2023-04-04T00:04:26;94128.34;;;9.28;100.00
20624;BME280;10471;42.736;23.346;2023-04-04T00:06:52;94124.63;;;9.29;100.00
20624;BME280;10471;42.736;23.346;2023-04-04T00:09:18;94126.59;;;9.24;100.00
20624;BME280;10471;42.736;23.346;2023-04-04T00:11:44;94128.38;;;9.15;100.00
20624;BME280;10471;42.736;23.346;2023-04-04T00:14:09;94129.34;;;9.06;100.00
20624;BME280;10471;42.736;23.346;2023-04-04T00:16:35;94133.09;;;9.05;100.00
20624;BME280;10471;42.736;23.346;2023-04-04T00:19:01;94140.09;;;8.96;100.00
20624;BME280;10471;42.736;23.346;2023-04-04T00:21:26;94146.28;;;9.00;100.00
20624;BME280;10471;42.736;23.346;2023-04-04T00:23:55;94144.56;;;8.95;100.00
20624;BME280;10471;42.736;23.346;2023-04-04T00:26:22;94145.56;;;8.86;100.00
20624;BME280;10471;42.736;23.346;2023-04-04T00:28:47;94141.44;;;8.93;100.00
20624;BME280;10471;42.736;23.346;2023-04-04T00:31:13;94139.13;;;8.92;100.00
20624;BME280;10471;42.736;23.346;2023-04-04T00:33:39;94133.09;;;8.91;100.00
20624;BME280;10471;42.736;23.346;2023-04-04T00:36:04;94133.16;;;9.00;100.00
20624;BME280;10471;42.736;23.346;2023-04-04T00:38:29;94127.03;;;9.04;100.00
20624;BME280;10471;42.736;23.346;2023-04-04T00:40:55;94130.34;;;9.10;100.00
20624;BME280;10471;42.736;23.346;2023-04-04T00:43:21;94111.84;;;9.14;100.00
20624;BME280;10471;42.736;23.346;2023-04-04T00:45:47;94104.41;;;9.16;100.00
20624;BME280;10471;42.736;23.346;2023-04-04T00:48:14;94090.69;;;9.19;100.00
20624;BME280;10471;42.736;23.346;2023-04-04T00:50:39;94089.78;;;9.24;100.00
20624;BME280;10471;42.736;23.346;2023-04-04T00:53:05;94083.16;;;9.26;100.00
20624;BME280;10471;42.736;23.346;2023-04-04T00:55:30;94080.06;;;9.24;100.00
20624;BME280;10471;42.736;23.346;2023-04-04T00:57:57;94073.84;;;9.20;100.00
20624;BME280;10471;42.736;23.346;2023-04-04T01:00:22;94084.34;;;9.20;100.00
20624;BME280;10471;42.736;23.346;2023-04-04T01:02:49;94081.25;;;9.18;100.00
20624;BME280;10471;42.736;23.346;2023-04-04T01:05:15;94083.41;;;9.16;100.00
20624;BME280;10471;42.736;23.346;2023-04-04T01:07:40;94081.06;;;9.15;100.00
20624;BME280;10471;42.736;23.346;2023-04-04T01:10:07;94090.81;;;9.14;100.00
20624;BME280;10471;42.736;23.346;2023-04-04T01:12:33;94094.44;;;9.05;100.00
20624;BME280;10471;42.736;23.346;2023-04-04T01:14:58;94095.69;;;9.08;100.00
20624;BME280;10471;42.736;23.346;2023-04-04T01:17:24;94085.00;;;9.04;100.00
20624;BME280;10471;42.736;23.346;2023-04-04T01:20:06;94091.13;;;9.00;100.00
20624;BME280;10471;42.736;23.346;2023-04-04T01:22:34;94090.78;;;8.93;100.00
20624;BME280;10471;42.736;23.346;2023-04-04T01:25:03;94092.03;;;8.95;100.00
20624;BME280;10471;42.736;23.346;2023-04-04T01:27:30;94097.09;;;8.92;100.00
20624;BME280;10471;42.736;23.346;2023-04-04T01:29:55;94101.97;;;8.85;100.00
20624;BME280;10471;42.736;23.346;2023-04-04T01:32:32;94107.31;;;8.80;100.00
20624;BME280;10471;42.736;23.346;2023-04-04T01:40:54;94108.03;;;8.72;100.00
20624;BME280;10471;42.736;23.346;2023-04-04T01:43:20;94108.22;;;8.75;100.00
20624;BME280;10471;42.736;23.346;2023-04-04T01:45:45;94102.19;;;8.75;100.00
20624;BME280;10471;42.736;23.346;2023-04-04T01:48:11;94100.13;;;8.85;100.00
20624;BME280;10471;42.736;23.346;2023-04-04T01:50:37;94102.16;;;8.88;100.00
20624;BME280;10471;42.736;23.346;2023-04-04T01:53:02;94093.41;;;8.93;100.00
20624;BME280;10471;42.736;23.346;2023-04-04T01:55:27;94098.25;;;8.99;100.00
20624;BME280;10471;42.736;23.346;2023-04-04T01:57:54;94097.09;;;8.92;100.00
20624;BME280;10471;42.736;23.346;2023-04-04T02:00:19;94091.63;;;9.02;100.00
20624;BME280;10471;42.736;23.346;2023-04-04T02:02:45;94089.69;;;9.07;100.00
20624;BME280;10471;42.736;23.346;2023-04-04T02:05:10;94078.75;;;9.13;100.00
20624;BME280;10471;42.736;23.346;2023-04-04T02:07:36;94066.88;;;9.16;100.00
20624;BME280;10471;42.736;23.346;2023-04-04T02:10:02;94062.56;;;9.20;100.00
20624;BME280;10471;42.736;23.346;2023-04-04T02:12:27;94075.88;;;9.23;100.00
20624;BME280;10471;42.736;23.346;2023-04-04T02:14:53;94078.31;;;9.20;100.00
20624;BME280;10471;42.736;23.346;2023-04-04T02:17:18;94078.81;;;9.22;100.00
20624;BME280;10471;42.736;23.346;2023-04-04T02:19:44;94072.47;;;9.23;100.00
20624;BME280;10471;42.736;23.346;2023-04-04T02:22:10;94069.38;;;9.21;100.00
20624;BME280;10471;42.736;23.346;2023-04-04T02:24:35;94068.00;;;9.23;100.00
20624;BME280;10471;42.736;23.346;2023-04-04T02:27:01;94073.25;;;9.23;100.00
20624;BME280;10471;42.736;23.346;2023-04-04T02:29:26;94064.31;;;9.24;100.00
20624;BME280;10471;42.736;23.346;2023-04-04T02:31:52;94074.63;;;9.21;100.00
20624;BME280;10471;42.736;23.346;2023-04-04T02:34:17;94062.38;;;9.16;100.00
20624;BME280;10471;42.736;23.346;2023-04-04T02:36:44;94060.22;;;9.18;100.00
20624;BME280;10471;42.736;23.346;2023-04-04T02:39:09;94063.31;;;9.20;100.00
20624;BME280;10471;42.736;23.346;2023-04-04T02:41:34;94062.25;;;9.21;100.00
20624;BME280;10471;42.736;23.346;2023-04-04T02:44:00;94055.75;;;9.19;100.00
20624;BME280;10471;42.736;23.346;2023-04-04T02:46:25;94063.31;;;9.20;100.00
20624;BME280;10471;42.736;23.346;2023-04-04T02:48:51;94068.69;;;9.15;100.00
20624;BME280;10471;42.736;23.346;2023-04-04T02:51:17;94071.31;;;9.15;100.00
20624;BME280;10471;42.736;23.346;2023-04-04T02:53:42;94072.69;;;9.13;100.00
20624;BME280;10471;42.736;23.346;2023-04-04T02:56:07;94075.50;;;9.16;100.00
20624;BME280;10471;42.736;23.346;2023-04-04T02:58:33;94080.47;;;9.18;100.00
20624;BME280;10471;42.736;23.346;2023-04-04T03:00:59;94078.13;;;9.16;100.00
20624;BME280;10471;42.736;23.346;2023-04-04T03:03:24;94074.44;;;9.17;100.00
20624;BME280;10471;42.736;23.346;2023-04-04T03:05:50;94074.44;;;9.17;100.00
20624;BME280;10471;42.736;23.346;2023-04-04T03:08:16;94067.63;;;9.16;100.00
20624;BME280;10471;42.736;23.346;2023-04-04T03:10:43;94068.56;;;9.20;100.00
20624;BME280;10471;42.736;23.346;2023-04-04T03:13:09;94067.06;;;9.19;100.00
20624;BME280;10471;42.736;23.346;2023-04-04T03:15:34;94071.81;;;9.17;100.00
20624;BME280;10471;42.736;23.346;2023-04-04T03:18:00;94073.38;;;9.18;100.00
20624;BME280;10471;42.736;23.346;2023-04-04T03:20:26;94075.38;;;9.21;100.00
20624;BME280;10471;42.736;23.346;2023-04-04T03:22:52;94077.44;;;9.24;100.00
20624;BME280;10471;42.736;23.346;2023-04-04T03:25:17;94075.06;;;9.14;100.00
20624;BME280;10471;42.736;23.346;2023-04-04T03:27:43;94077.56;;;9.19;100.00
20624;BME280;10471;42.736;23.346;2023-04-04T03:30:08;94085.31;;;9.24;100.00
20624;BME280;10471;42.736;23.346;2023-04-04T03:32:36;94077.91;;;9.26;100.00
20624;BME280;10471;42.736;23.346;2023-04-04T03:35:02;94083.16;;;9.26;100.00
20624;BME280;10471;42.736;23.346;2023-04-04T03:37:28;94081.78;;;9.29;100.00
20624;BME280;10471;42.736;23.346;2023-04-04T03:39:54;94074.69;;;9.29;100.00
20624;BME280;10471;42.736;23.346;2023-04-04T03:42:19;94077.31;;;9.29;100.00
20624;BME280;10471;42.736;23.346;2023-04-04T03:44:46;94069.91;;;9.31;100.00
20624;BME280;10471;42.736;23.346;2023-04-04T03:47:12;94072.25;;;9.33;100.00
20624;BME280;10471;42.736;23.346;2023-04-04T03:49:38;94069.31;;;9.34;100.00
20624;BME280;10471;42.736;23.346;2023-04-04T03:52:03;94069.63;;;9.33;100.00
20624;BME280;10471;42.736;23.346;2023-04-04T03:54:29;94075.16;;;9.31;100.00
20624;BME280;10471;42.736;23.346;2023-04-04T03:56:55;94075.00;;;9.28;100.00
20624;BME280;10471;42.736;23.346;2023-04-04T03:59:21;94080.06;;;9.24;100.00
20624;BME280;10471;42.736;23.346;2023-04-04T04:01:47;94080.31;;;9.14;100.00
20624;BME280;10471;42.736;23.346;2023-04-04T04:04:12;94084.47;;;9.15;100.00
20624;BME280;10471;42.736;23.346;2023-04-04T04:06:37;94071.06;;;9.17;100.00
20624;BME280;10471;42.736;23.346;2023-04-04T04:09:03;94078.31;;;9.20;100.00
20624;BME280;10471;42.736;23.346;2023-04-04T04:11:28;94073.84;;;9.20;100.00
20624;BME280;10471;42.736;23.346;2023-04-04T04:13:54;94078.50;;;9.23;100.00
20624;BME280;10471;42.736;23.346;2023-04-04T04:16:20;94081.63;;;9.25;100.00
20624;BME280;10471;42.736;23.346;2023-04-04T04:18:46;94079.00;;;9.25;100.00
20624;BME280;10471;42.736;23.346;2023-04-04T04:21:12;94072.66;;;9.26;100.00
20624;BME280;10471;42.736;23.346;2023-04-04T04:23:37;94080.66;;;9.21;100.00
20624;BME280;10471;42.736;23.346;2023-04-04T04:26:03;94078.69;;;9.27;100.00
20624;BME280;10471;42.736;23.346;2023-04-04T04:28:28;94078.41;;;9.28;100.00
20624;BME280;10471;42.736;23.346;2023-04-04T04:30:54;94085.66;;;9.31;100.00
20624;BME280;10471;42.736;23.346;2023-04-04T04:33:20;94088.97;;;9.37;100.00
20624;BME280;10471;42.736;23.346;2023-04-04T04:35:53;94088.19;;;9.36;100.00
20624;BME280;10471;42.736;23.346;2023-04-04T04:38:18;94093.31;;;9.41;100.00
20624;BME280;10471;42.736;23.346;2023-04-04T04:40:44;94095.38;;;9.44;100.00
20624;BME280;10471;42.736;23.346;2023-04-04T04:43:09;94111.13;;;9.44;100.00
20624;BME280;10471;42.736;23.346;2023-04-04T04:45:35;94108.69;;;9.48;100.00
20624;BME280;10471;42.736;23.346;2023-04-04T04:48:00;94109.03;;;9.55;100.00
20624;BME280;10471;42.736;23.346;2023-04-04T04:50:26;94108.16;;;9.59;100.00
20624;BME280;10471;42.736;23.346;2023-04-04T04:52:51;94099.66;;;9.62;100.00
20624;BME280;10471;42.736;23.346;2023-04-04T04:55:17;94104.78;;;9.67;100.00
20624;BME280;10471;42.736;23.346;2023-04-04T04:57:42;94114.72;;;9.70;100.00
20624;BME280;10471;42.736;23.346;2023-04-04T05:00:08;94115.66;;;9.74;100.00
20624;BME280;10471;42.736;23.346;2023-04-04T05:02:34;94121.19;;;9.64;100.00
20624;BME280;10471;42.736;23.346;2023-04-04T05:04:59;94127.56;;;9.50;100.00
20624;BME280;10471;42.736;23.346;2023-04-04T05:07:25;94131.44;;;9.52;100.00
20624;BME280;10471;42.736;23.346;2023-04-04T05:09:51;94135.06;;;9.56;100.00
20624;BME280;10471;42.736;23.346;2023-04-04T05:12:16;94138.63;;;9.60;100.00
20624;BME280;10471;42.736;23.346;2023-04-04T05:14:43;94142.03;;;9.61;100.00
20624;BME280;10471;42.736;23.346;2023-04-04T05:17:08;94141.03;;;9.70;100.00
20624;BME280;10471;42.736;23.346;2023-04-04T05:19:34;94138.41;;;9.70;100.00
20624;BME280;10471;42.736;23.346;2023-04-04T05:21:59;94141.84;;;9.79;100.00
20624;BME280;10471;42.736;23.346;2023-04-04T05:24:25;94144.16;;;9.72;100.00
20624;BME280;10471;42.736;23.346;2023-04-04T05:26:51;94143.34;;;9.72;100.00
20624;BME280;10471;42.736;23.346;2023-04-04T05:29:17;94146.28;;;9.70;100.00
20624;BME280;10471;42.736;23.346;2023-04-04T05:31:42;94148.63;;;9.72;100.00
20624;BME280;10471;42.736;23.346;2023-04-04T05:34:07;94151.78;;;9.60;100.00
20624;BME280;10471;42.736;23.346;2023-04-04T05:36:36;94158.06;;;9.51;100.00
20624;BME280;10471;42.736;23.346;2023-04-04T05:39:02;94155.34;;;9.42;100.00
20624;BME280;10471;42.736;23.346;2023-04-04T05:41:31;94157.09;;;9.47;100.00
20624;BME280;10471;42.736;23.346;2023-04-04T05:43:58;94147.78;;;9.63;100.00
20624;BME280;10471;42.736;23.346;2023-04-04T05:46:24;94157.81;;;9.82;100.00
20624;BME280;10471;42.736;23.346;2023-04-04T05:48:50;94161.47;;;9.73;100.00
20624;BME280;10471;42.736;23.346;2023-04-04T05:51:16;94164.16;;;9.81;100.00
20624;BME280;10471;42.736;23.346;2023-04-04T05:53:41;94166.00;;;9.59;100.00
20624;BME280;10471;42.736;23.346;2023-04-04T05:56:10;94167.75;;;9.64;100.00
20624;BME280;10471;42.736;23.346;2023-04-04T05:58:36;94168.34;;;9.61;100.00
20624;BME280;10471;42.736;23.346;2023-04-04T06:01:05;94165.06;;;9.55;100.00
20624;BME280;10471;42.736;23.346;2023-04-04T06:03:31;94164.69;;;9.48;100.00
20624;BME280;10471;42.736;23.346;2023-04-04T06:05:56;94170.47;;;9.37;100.00
20624;BME280;10471;42.736;23.346;2023-04-04T06:08:21;94172.91;;;9.33;100.00
20624;BME280;10471;42.736;23.346;2023-04-04T06:10:47;94172.91;;;9.33;100.00
20624;BME280;10471;42.736;23.346;2023-04-04T06:13:12;94168.19;;;9.44;100.00
20624;BME280;10471;42.736;23.346;2023-04-04T06:15:37;94179.53;;;9.31;100.00
20624;BME280;10471;42.736;23.346;2023-04-04T06:18:03;94172.91;;;9.33;100.00
20624;BME280;10471;42.736;23.346;2023-04-04T06:20:28;94183.41;;;9.33;100.00
20624;BME280;10471;42.736;23.346;2023-04-04T06:22:54;94191.00;;;9.35;100.00
20624;BME280;10471;42.736;23.346;2023-04-04T06:25:19;94193.78;;;9.16;100.00
20624;BME280;10471;42.736;23.346;2023-04-04T06:27:45;94204.19;;;8.41;100.00
20624;BME280;10471;42.736;23.346;2023-04-04T06:30:10;94202.56;;;8.13;100.00
20624;BME280;10471;42.736;23.346;2023-04-04T06:32:38;94221.28;;;7.75;100.00
20624;BME280;10471;42.736;23.346;2023-04-04T06:35:04;94210.66;;;7.67;100.00
20624;BME280;10471;42.736;23.346;2023-04-04T06:37:30;94234.75;;;7.32;100.00
20624;BME280;10471;42.736;23.346;2023-04-04T06:39:55;94243.19;;;7.06;100.00
20624;BME280;10471;42.736;23.346;2023-04-04T06:42:20;94234.75;;;6.90;100.00
20624;BME280;10471;42.736;23.346;2023-04-04T06:44:46;94238.97;;;6.68;100.00
20624;BME280;10471;42.736;23.346;2023-04-04T06:47:12;94255.47;;;6.63;100.00
20624;BME280;10471;42.736;23.346;2023-04-04T06:49:38;94250.91;;;6.51;100.00
20624;BME280;10471;42.736;23.346;2023-04-04T06:52:03;94246.22;;;6.48;100.00
20624;BME280;10471;42.736;23.346;2023-04-04T06:54:29;94250.91;;;6.51;100.00
20624;BME280;10471;42.736;23.346;2023-04-04T06:56:55;94250.22;;;6.40;100.00
20624;BME280;10471;42.736;23.346;2023-04-04T06:59:20;94268.78;;;6.15;100.00
20624;BME280;10471;42.736;23.346;2023-04-04T07:01:45;94273.88;;;5.97;100.00
20624;BME280;10471;42.736;23.346;2023-04-04T07:04:11;94289.06;;;5.95;100.00
20624;BME280;10471;42.736;23.346;2023-04-04T07:06:36;94291.66;;;5.95;100.00
20624;BME280;10471;42.736;23.346;2023-04-04T07:09:01;94291.78;;;5.80;100.00
20624;BME280;10471;42.736;23.346;2023-04-04T07:11:29;94305.25;;;5.97;100.00
20624;BME280;10471;42.736;23.346;2023-04-04T07:13:55;94317.34;;;5.88;100.00
20624;BME280;10471;42.736;23.346;2023-04-04T07:16:20;94340.97;;;5.63;100.00
20624;BME280;10471;42.736;23.346;2023-04-04T07:18:46;94330.31;;;5.60;100.00
20624;BME280;10471;42.736;23.346;2023-04-04T07:21:11;94333.47;;;5.52;100.00
20624;BME280;10471;42.736;23.346;2023-04-04T07:23:37;94338.44;;;5.48;100.00
20624;BME280;10471;42.736;23.346;2023-04-04T07:26:03;94341.56;;;5.50;100.00
20624;BME280;10471;42.736;23.346;2023-04-04T07:28:28;94343.16;;;5.46;100.00
20624;BME280;10471;42.736;23.346;2023-04-04T07:30:54;94349.75;;;5.34;100.00
20624;BME280;10471;42.736;23.346;2023-04-04T07:33:22;94362.56;;;5.30;100.00
20624;BME280;10471;42.736;23.346;2023-04-04T07:35:48;94354.47;;;5.27;100.00
20624;BME280;10471;42.736;23.346;2023-04-04T07:38:13;94359.47;;;5.18;100.00
20624;BME280;10471;42.736;23.346;2023-04-04T07:40:39;94360.50;;;5.22;100.00
20624;BME280;10471;42.736;23.346;2023-04-04T07:43:04;94363.66;;;5.19;100.00
20624;BME280;10471;42.736;23.346;2023-04-04T07:45:30;94367.31;;;5.14;100.00
20624;BME280;10471;42.736;23.346;2023-04-04T07:47:56;94378.00;;;5.17;100.00
20624;BME280;10471;42.736;23.346;2023-04-04T07:50:21;94371.47;;;5.19;100.00
20624;BME280;10471;42.736;23.346;2023-04-04T07:52:50;94375.91;;;5.19;100.00
20624;BME280;10471;42.736;23.346;2023-04-04T07:55:16;94384.56;;;5.15;100.00
20624;BME280;10471;42.736;23.346;2023-04-04T07:57:43;94383.50;;;5.16;100.00
20624;BME280;10471;42.736;23.346;2023-04-04T08:00:09;94385.56;;;5.18;100.00
20624;BME280;10471;42.736;23.346;2023-04-04T08:02:35;94392.13;;;5.06;100.00
20624;BME280;10471;42.736;23.346;2023-04-04T08:05:01;94395.00;;;5.15;100.00
20624;BME280;10471;42.736;23.346;2023-04-04T08:07:27;94402.28;;;5.13;100.00
20624;BME280;10471;42.736;23.346;2023-04-04T08:09:52;94407.00;;;5.06;100.00
20624;BME280;10471;42.736;23.346;2023-04-04T08:12:18;94420.06;;;5.01;100.00
20624;BME280;10471;42.736;23.346;2023-04-04T08:14:43;94418.00;;;4.93;100.00
20624;BME280;10471;42.736;23.346;2023-04-04T08:17:08;94411.75;;;4.84;100.00
20624;BME280;10471;42.736;23.346;2023-04-04T08:19:34;94419.81;;;4.82;100.00
20624;BME280;10471;42.736;23.346;2023-04-04T08:22:00;94422.19;;;4.84;100.00
20624;BME280;10471;42.736;23.346;2023-04-04T08:24:25;94436.56;;;4.81;100.00
20624;BME280;10471;42.736;23.346;2023-04-04T08:26:51;94418.53;;;4.80;100.00
20624;BME280;10471;42.736;23.346;2023-04-04T08:29:16;94434.72;;;4.82;100.00
20624;BME280;10471;42.736;23.346;2023-04-04T08:31:42;94438.38;;;4.81;100.00
20624;BME280;10471;42.736;23.346;2023-04-04T08:34:07;94434.19;;;4.80;100.00
20624;BME280;10471;42.736;23.346;2023-04-04T08:36:33;94437.31;;;4.92;100.00
20624;BME280;10471;42.736;23.346;2023-04-04T08:38:59;94447.75;;;4.82;100.00
20624;BME280;10471;42.736;23.346;2023-04-04T08:41:25;94441.50;;;4.88;100.00
20624;BME280;10471;42.736;23.346;2023-04-04T08:43:52;94451.41;;;4.81;100.00
20624;BME280;10471;42.736;23.346;2023-04-04T08:46:21;94445.69;;;4.84;100.00
20624;BME280;10471;42.736;23.346;2023-04-04T08:48:51;94447.22;;;4.70;100.00
20624;BME280;10471;42.736;23.346;2023-04-04T08:51:18;94456.88;;;4.84;100.00
20624;BME280;10471;42.736;23.346;2023-04-04T08:53:44;94474.38;;;4.69;100.00
20624;BME280;10471;42.736;23.346;2023-04-04T08:56:10;94469.16;;;4.69;100.00
20624;BME280;10471;42.736;23.346;2023-04-04T08:58:36;94476.97;;;4.59;100.00
20624;BME280;10471;42.736;23.346;2023-04-04T09:01:05;94460.81;;;4.52;100.00
20624;BME280;10471;42.736;23.346;2023-04-04T09:03:32;94479.06;;;4.42;100.00
20624;BME280;10471;42.736;23.346;2023-04-04T09:06:00;94480.63;;;4.63;100.00
20624;BME280;10471;42.736;23.346;2023-04-04T09:08:27;94492.63;;;4.59;100.00
20624;BME280;10471;42.736;23.346;2023-04-04T09:10:53;94478.53;;;4.65;100.00
20624;BME280;10471;42.736;23.346;2023-04-04T09:13:18;94474.91;;;4.66;100.00
20624;BME280;10471;42.736;23.346;2023-04-04T09:15:48;94483.25;;;4.63;100.00
20624;BME280;10471;42.736;23.346;2023-04-04T09:18:15;94493.41;;;4.50;100.00
20624;BME280;10471;42.736;23.346;2023-04-04T09:20:46;94488.97;;;4.50;100.00
20624;BME280;10471;42.736;23.346;2023-04-04T09:23:19;94495.75;;;4.56;100.00
20624;BME280;10471;42.736;23.346;2023-04-04T09:25:52;94512.97;;;4.52;100.00
20624;BME280;10471;42.736;23.346;2023-04-04T09:28:18;94499.41;;;4.55;100.00
20624;BME280;10471;42.736;23.346;2023-04-04T09:30:47;94493.69;;;4.58;100.00
20624;BME280;10471;42.736;23.346;2023-04-04T09:33:13;94498.88;;;4.48;100.00
20624;BME280;10471;42.736;23.346;2023-04-04T09:35:44;94502.53;;;4.47;100.00
20624;BME280;10471;42.736;23.346;2023-04-04T09:38:10;94495.47;;;4.53;100.00
20624;BME280;10471;42.736;23.346;2023-04-04T09:40:36;94500.97;;;4.51;100.00
20624;BME280;10471;42.736;23.346;2023-04-04T09:43:03;94492.88;;;4.57;100.00
20624;BME280;10471;42.736;23.346;2023-04-04T09:45:33;94531.47;;;4.41;100.00
20624;BME280;10471;42.736;23.346;2023-04-04T09:48:00;94520.75;;;4.32;100.00
20624;BME280;10471;42.736;23.346;2023-04-04T09:50:26;94494.97;;;4.46;100.00
20624;BME280;10471;42.736;23.346;2023-04-04T09:52:57;94491.56;;;4.55;100.00
20624;BME280;10471;42.736;23.346;2023-04-04T09:55:34;94502.28;;;4.63;100.00
20624;BME280;10471;42.736;23.346;2023-04-04T09:58:24;94503.09;;;4.64;100.00
20624;BME280;10471;42.736;23.346;2023-04-04T10:00:52;94506.19;;;4.61;100.00
20624;BME280;10471;42.736;23.346;2023-04-04T10:03:21;94511.94;;;4.73;100.00
20624;BME280;10471;42.736;23.346;2023-04-04T10:05:53;94513.25;;;4.90;100.00
20624;BME280;10471;42.736;23.346;2023-04-04T10:08:22;94509.34;;;4.93;100.00
20624;BME280;10471;42.736;23.346;2023-04-04T10:10:55;94520.81;;;4.87;100.00
20624;BME280;10471;42.736;23.346;2023-04-04T10:13:25;94521.84;;;4.86;100.00
20624;BME280;10471;42.736;23.346;2023-04-04T10:15:56;94506.19;;;4.71;100.00
20624;BME280;10471;42.736;23.346;2023-04-04T10:18:26;94522.88;;;4.60;100.00
20624;BME280;10471;42.736;23.346;2023-04-04T10:20:52;94539.56;;;4.59;100.00
20624;BME280;10471;42.736;23.346;2023-04-04T10:23:18;94536.94;;;4.54;100.00
20624;BME280;10471;42.736;23.346;2023-04-04T10:25:44;94521.56;;;4.62;100.00
20624;BME280;10471;42.736;23.346;2023-04-04T10:28:11;94529.94;;;4.74;100.00
20624;BME280;10471;42.736;23.346;2023-04-04T10:30:41;94533.09;;;4.76;100.00
20624;BME280;10471;42.736;23.346;2023-04-04T10:33:09;94549.75;;;4.60;100.00
20624;BME280;10471;42.736;23.346;2023-04-04T10:35:40;94545.03;;;4.53;100.00
20624;BME280;10471;42.736;23.346;2023-04-04T10:38:08;94555.72;;;4.51;100.00
20624;BME280;10471;42.736;23.346;2023-04-04T10:40:35;94560.97;;;4.56;100.00
20624;BME280;10471;42.736;23.346;2023-04-04T10:43:03;94557.03;;;4.53;100.00
20624;BME280;10471;42.736;23.346;2023-04-04T10:45:34;94547.91;;;4.56;100.00
20624;BME280;10471;42.736;23.346;2023-04-04T10:48:03;94554.19;;;4.60;100.00
20624;BME280;10471;42.736;23.346;2023-04-04T10:50:28;94558.34;;;4.56;100.00
20624;BME280;10471;42.736;23.346;2023-04-04T10:52:57;94553.66;;;4.53;100.00
20624;BME280;10471;42.736;23.346;2023-04-04T10:55:25;94579.78;;;4.63;100.00
20624;BME280;10471;42.736;23.346;2023-04-04T10:57:52;94562.00;;;4.60;100.00
20624;BME280;10471;42.736;23.346;2023-04-04T11:00:20;94587.31;;;4.64;100.00
20624;BME280;10471;42.736;23.346;2023-04-04T11:05:34;94574.56;;;4.73;100.00
20624;BME280;10471;42.736;23.346;2023-04-04T11:08:09;94586.03;;;4.67;100.00
20624;BME280;10471;42.736;23.346;2023-04-04T11:10:36;94562.53;;;4.62;100.00
20624;BME280;10471;42.736;23.346;2023-04-04T11:13:09;94569.34;;;4.73;100.00
20624;BME280;10471;42.736;23.346;2023-04-04T11:21:18;94579.78;;;4.63;100.00
20624;BME280;10471;42.736;23.346;2023-04-04T11:26:13;94588.91;;;4.70;100.00
20624;BME280;10471;42.736;23.346;2023-04-04T11:39:00;94608.47;;;4.68;100.00
20624;BME280;10471;42.736;23.346;2023-04-04T11:44:14;94603.75;;;4.60;100.00
20624;BME280;10471;42.736;23.346;2023-04-04T11:46:40;94601.66;;;4.57;100.00
20624;BME280;10471;42.736;23.346;2023-04-04T11:49:06;94602.13;;;4.44;100.00
20624;BME280;10471;42.736;23.346;2023-04-04T11:51:32;94604.72;;;4.39;100.00
20624;BME280;10471;42.736;23.346;2023-04-04T11:53:57;94613.03;;;4.31;100.00
20624;BME280;10471;42.736;23.346;2023-04-04T11:56:24;94601.59;;;4.32;100.00
20624;BME280;10471;42.736;23.346;2023-04-04T11:58:50;94608.31;;;4.23;100.00
20624;BME280;10471;42.736;23.346;2023-04-04T12:01:16;94611.44;;;4.20;100.00
20624;BME280;10471;42.736;23.346;2023-04-04T12:03:42;94615.06;;;4.19;100.00
20624;BME280;10471;42.736;23.346;2023-04-04T12:06:10;94598.84;;;4.07;100.00
20624;BME280;10471;42.736;23.346;2023-04-04T12:08:35;94595.19;;;4.03;100.00
20624;BME280;10471;42.736;23.346;2023-04-04T12:11:03;94601.16;;;3.94;100.00
20624;BME280;10471;42.736;23.346;2023-04-04T12:13:31;94613.13;;;3.95;100.00
20624;BME280;10471;42.736;23.346;2023-04-04T12:15:56;94607.13;;;3.94;100.00
20624;BME280;10471;42.736;23.346;2023-04-04T12:18:21;94604.78;;;3.93;100.00
20624;BME280;10471;42.736;23.346;2023-04-04T12:20:49;94597.47;;;3.95;100.00
20624;BME280;10471;42.736;23.346;2023-04-04T12:23:15;94613.91;;;3.90;100.00
20624;BME280;10471;42.736;23.346;2023-04-04T12:25:40;94605.06;;;3.96;100.00
20624;BME280;10471;42.736;23.346;2023-04-04T12:28:09;94620.13;;;3.89;100.00
20624;BME280;10471;42.736;23.346;2023-04-04T12:30:36;94614.38;;;3.88;100.00
20624;BME280;10471;42.736;23.346;2023-04-04T12:33:03;94615.41;;;3.87;100.00
20624;BME280;10471;42.736;23.346;2023-04-04T12:35:29;94609.47;;;3.96;100.00
20624;BME280;10471;42.736;23.346;2023-04-04T12:38:05;94612.38;;;3.99;100.00
20624;BME280;10471;42.736;23.346;2023-04-04T12:40:37;94626.34;;;3.84;100.00
20624;BME280;10471;42.736;23.346;2023-04-04T12:43:05;94622.16;;;3.78;100.00
20624;BME280;10471;42.736;23.346;2023-04-04T12:45:31;94615.66;;;3.80;100.00
20624;BME280;10471;42.736;23.346;2023-04-04T12:47:56;94625.25;;;3.75;100.00
20624;BME280;10471;42.736;23.346;2023-04-04T12:50:26;94629.63;;;3.69;100.00
20624;BME280;10471;42.736;23.346;2023-04-04T12:52:52;94653.28;;;3.58;100.00
20624;BME280;10471;42.736;23.346;2023-04-04T12:55:21;94636.28;;;3.50;100.00
20624;BME280;10471;42.736;23.346;2023-04-04T12:57:48;94637.06;;;3.51;100.00
20624;BME280;10471;42.736;23.346;2023-04-04T13:00:14;94643.06;;;3.51;100.00
20624;BME280;10471;42.736;23.346;2023-04-04T13:02:43;94623.53;;;3.49;100.00
20624;BME280;10471;42.736;23.346;2023-04-04T13:05:10;94632.84;;;3.45;100.00
20624;BME280;10471;42.736;23.346;2023-04-04T13:07:37;94652.06;;;3.34;100.00
20624;BME280;10471;42.736;23.346;2023-04-04T13:10:12;94637.47;;;3.33;100.00
20624;BME280;10471;42.736;23.346;2023-04-04T13:15:20;94648.91;;;3.32;100.00
20624;BME280;10471;42.736;23.346;2023-04-04T13:17:48;94657.25;;;3.34;100.00
20624;BME280;10471;42.736;23.346;2023-04-04T13:20:16;94656.75;;;3.37;100.00